createdAt,value
2023-05-12T00:00:50.926Z,8.70
2023-05-12T00:05:52.916Z,8.50
2023-05-12T00:10:54.663Z,8.40
2023-05-12T00:15:58.956Z,8.40
2023-05-12T00:21:01.207Z,8.40
2023-05-12T00:26:03.004Z,8.10
2023-05-12T00:31:05.228Z,8.00
2023-05-12T00:36:07.800Z,7.90
2023-05-12T00:41:09.650Z,7.90
2023-05-12T00:46:11.603Z,8.10
2023-05-12T00:51:15.359Z,8.10
2023-05-12T00:56:21.835Z,8.00
2023-05-12T01:01:23.969Z,8.10
2023-05-12T01:06:25.691Z,8.10
2023-05-12T01:11:27.465Z,7.80
2023-05-12T01:16:39.416Z,7.60
2023-05-12T01:21:41.322Z,7.50
2023-05-12T01:26:43.113Z,7.50
2023-05-12T01:31:45.496Z,7.50
2023-05-12T01:36:47.514Z,7.50
2023-05-12T01:41:49.278Z,7.40
2023-05-12T01:46:51.102Z,7.20
2023-05-12T01:51:53.050Z,7.20
2023-05-12T01:56:54.769Z,7.20
2023-05-12T02:01:56.590Z,7.10
2023-05-12T02:06:58.994Z,7.00
2023-05-12T02:12:02.402Z,7.00
2023-05-12T02:17:04.689Z,7.10
2023-05-12T02:22:06.481Z,7.20
2023-05-12T02:27:08.229Z,7.20
2023-05-12T02:32:10.090Z,7.00
2023-05-12T02:37:11.910Z,6.80
2023-05-12T02:42:13.622Z,6.80
2023-05-12T02:47:15.367Z,6.90
2023-05-12T02:52:17.133Z,7.00
2023-05-12T02:57:18.955Z,7.10
2023-05-12T03:02:20.726Z,7.20
2023-05-12T03:07:22.623Z,7.20
2023-05-12T03:12:24.561Z,7.30
2023-05-12T03:17:26.418Z,7.40
2023-05-12T03:22:28.261Z,7.80
2023-05-12T03:27:31.414Z,8.00
2023-05-12T03:32:33.165Z,8.50
2023-05-12T03:37:35.139Z,9.30
2023-05-12T03:42:36.864Z,10.40
2023-05-12T03:47:40.559Z,12.10
2023-05-12T03:52:42.685Z,13.50
2023-05-12T03:57:44.404Z,13.20
2023-05-12T04:02:46.493Z,13.00
2023-05-12T04:07:48.434Z,13.20
2023-05-12T04:12:50.147Z,14.50
2023-05-12T04:17:52.428Z,15.70
2023-05-12T04:22:54.243Z,15.40
2023-05-12T04:27:56.002Z,14.70
2023-05-12T04:32:57.768Z,13.80
2023-05-12T04:38:01.570Z,13.10
2023-05-12T04:43:03.336Z,13.00
2023-05-12T04:48:05.851Z,13.10
2023-05-12T04:53:07.640Z,13.90
2023-05-12T04:58:09.443Z,14.60
2023-05-12T05:03:11.448Z,14.80
2023-05-12T05:08:13.244Z,15.10
2023-05-12T05:13:15.002Z,16.00
2023-05-12T05:18:16.802Z,17.00
2023-05-12T05:23:18.605Z,16.90
2023-05-12T05:28:20.465Z,16.70
2023-05-12T05:33:22.220Z,18.20
2023-05-12T05:38:25.316Z,21.00
2023-05-12T05:43:27.128Z,24.60
2023-05-12T05:48:28.861Z,27.80
2023-05-12T05:53:30.678Z,29.60
2023-05-12T05:58:32.421Z,31.80
2023-05-12T06:03:34.379Z,32.30
2023-05-12T06:08:36.149Z,28.40
2023-05-12T06:13:37.909Z,24.90
2023-05-12T06:18:39.756Z,22.20
2023-05-12T06:23:41.539Z,21.20
2023-05-12T06:28:43.290Z,20.50
2023-05-12T06:33:45.027Z,20.70
2023-05-12T06:38:46.830Z,22.00
2023-05-12T06:43:48.579Z,27.40
2023-05-12T06:48:50.392Z,31.10
2023-05-12T06:53:52.190Z,32.30
2023-05-12T06:58:54.360Z,32.70
2023-05-12T07:03:56.342Z,33.40
2023-05-12T07:08:58.504Z,35.40
2023-05-12T07:14:00.258Z,37.50
2023-05-12T07:19:02.161Z,36.70
2023-05-12T07:24:06.036Z,36.20
2023-05-12T07:29:13.429Z,36.20
2023-05-12T07:34:15.731Z,37.00
2023-05-12T07:39:23.422Z,39.60
2023-05-12T07:44:26.150Z,38.10
2023-05-12T07:49:27.862Z,36.10
2023-05-12T07:54:29.619Z,37.10
2023-05-12T07:59:31.428Z,36.00
2023-05-12T08:04:33.254Z,35.70
2023-05-12T08:09:35.120Z,36.10
2023-05-12T08:14:37.185Z,37.30
2023-05-12T08:19:39.136Z,36.30
2023-05-12T08:24:40.946Z,36.30
2023-05-12T08:29:42.784Z,35.70
2023-05-12T08:34:44.500Z,35.10
2023-05-12T08:39:47.089Z,35.50
2023-05-12T08:44:49.265Z,37.30
2023-05-12T08:50:01.456Z,37.20
2023-05-12T08:55:05.267Z,35.10
2023-05-12T09:00:08.907Z,35.40
2023-05-12T09:05:10.977Z,35.50
2023-05-12T09:10:26.336Z,31.60
2023-05-12T09:15:39.240Z,30.60
2023-05-12T09:20:41.370Z,30.80
2023-05-12T09:25:43.484Z,28.00
2023-05-12T09:30:45.234Z,27.30
2023-05-12T09:35:47.046Z,27.50
2023-05-12T09:40:49.045Z,28.20
2023-05-12T09:45:51.630Z,28.40
2023-05-12T09:50:53.422Z,29.90
2023-05-12T09:55:55.151Z,31.10
2023-05-12T10:01:20.891Z,33.10
2023-05-12T10:06:29.796Z,34.20
2023-05-12T10:11:32.188Z,33.30
2023-05-12T10:16:34.245Z,31.40
2023-05-12T10:21:38.109Z,28.30
2023-05-12T10:26:41.906Z,26.80
2023-05-12T10:31:45.387Z,26.10
2023-05-12T10:36:51.518Z,25.60
2023-05-12T10:42:07.369Z,24.40
2023-05-12T10:47:15.413Z,24.40
2023-05-12T10:52:20.373Z,24.20
2023-05-12T10:57:23.121Z,24.20
2023-05-12T11:02:30.770Z,23.60
2023-05-12T11:07:35.245Z,23.90
2023-05-12T11:12:37.329Z,24.00
2023-05-12T11:17:40.775Z,23.20
2023-05-12T11:22:43.413Z,23.60
2023-05-12T11:27:51.699Z,23.60
2023-05-12T11:33:03.886Z,23.90
2023-05-12T11:38:17.912Z,23.90
2023-05-12T11:43:22.888Z,23.40
2023-05-12T11:48:35.578Z,22.90
2023-05-12T11:53:41.099Z,22.40
2023-05-12T11:58:53.166Z,22.10
2023-05-12T12:03:55.972Z,22.70
2023-05-12T12:09:02.318Z,22.80
2023-05-12T12:14:04.560Z,22.30
2023-05-12T12:19:07.325Z,22.30
2023-05-12T12:24:09.096Z,22.40
2023-05-12T12:29:10.895Z,22.40
2023-05-12T12:34:12.617Z,22.70
2023-05-12T12:39:14.732Z,22.20
2023-05-12T12:44:16.612Z,22.00
2023-05-12T12:49:18.447Z,22.20
2023-05-12T12:54:20.184Z,22.10
2023-05-12T12:59:22.037Z,22.70
2023-05-12T13:04:23.776Z,22.70
2023-05-12T13:09:25.594Z,22.60
2023-05-12T13:14:27.338Z,22.60
2023-05-12T13:19:29.285Z,22.80
2023-05-12T13:24:31.133Z,22.50
2023-05-12T13:29:32.880Z,22.30
2023-05-12T13:34:34.856Z,22.40
2023-05-12T13:39:36.623Z,22.60
2023-05-12T13:44:38.531Z,22.40
2023-05-12T13:49:40.312Z,22.40
2023-05-12T13:54:42.050Z,22.20
2023-05-12T13:59:43.908Z,22.20
2023-05-12T14:04:45.718Z,22.50
2023-05-12T14:09:47.582Z,22.50
2023-05-12T14:14:50.137Z,22.30
2023-05-12T14:19:51.874Z,22.40
2023-05-12T14:24:55.579Z,22.20
2023-05-12T14:29:57.615Z,22.00
2023-05-12T14:34:59.453Z,22.10
2023-05-12T14:40:01.404Z,22.10
2023-05-12T14:45:03.572Z,21.70
2023-05-12T14:50:06.426Z,21.50
2023-05-12T14:55:12.219Z,21.40
2023-05-12T15:00:15.288Z,21.30
2023-05-12T15:05:17.027Z,21.30
2023-05-12T15:10:18.818Z,21.30
2023-05-12T15:15:20.884Z,21.50
2023-05-12T15:20:22.801Z,21.60
2023-05-12T15:25:24.571Z,21.60
2023-05-12T15:30:26.360Z,21.40
2023-05-12T15:35:28.302Z,21.20
2023-05-12T15:40:31.038Z,21.30
2023-05-12T15:45:37.330Z,21.20
2023-05-12T15:50:39.147Z,21.20
2023-05-12T15:55:40.896Z,21.20
2023-05-12T16:00:42.614Z,21.10
2023-05-12T16:05:44.351Z,21.00
2023-05-12T16:10:46.054Z,20.90
2023-05-12T16:15:50.909Z,20.90
2023-05-12T16:20:52.794Z,20.70
2023-05-12T16:25:54.534Z,20.60
2023-05-12T16:30:56.486Z,20.60
2023-05-12T16:35:58.461Z,20.50
2023-05-12T16:41:00.618Z,20.50
2023-05-12T16:46:03.510Z,20.30
2023-05-12T16:51:10.149Z,20.20
2023-05-12T16:56:12.056Z,20.20
2023-05-12T17:01:13.921Z,20.00
2023-05-12T17:06:15.718Z,19.80
2023-05-12T17:11:17.471Z,19.70
2023-05-12T17:16:19.296Z,19.70
2023-05-12T17:21:21.015Z,19.60
2023-05-12T17:26:22.844Z,19.40
2023-05-12T17:31:24.595Z,19.20
2023-05-12T17:36:27.000Z,19.00
2023-05-12T17:41:29.302Z,18.80
2023-05-12T17:46:31.342Z,18.50
2023-05-12T17:51:33.230Z,18.30
2023-05-12T17:56:35.152Z,18.10
2023-05-12T18:01:37.034Z,17.80
2023-05-12T18:06:38.895Z,17.50
2023-05-12T18:11:40.887Z,17.20
2023-05-12T18:16:42.928Z,17.00
2023-05-12T18:21:44.765Z,16.80
2023-05-12T18:26:47.174Z,16.50
2023-05-12T18:31:49.251Z,16.20
2023-05-12T18:36:51.755Z,15.90
2023-05-12T18:41:57.652Z,15.70
2023-05-12T18:46:59.473Z,15.70
2023-05-12T18:52:01.314Z,15.60
2023-05-12T18:57:03.306Z,15.50
2023-05-12T19:02:05.309Z,15.50
2023-05-12T19:07:09.836Z,15.50
2023-05-12T19:12:11.995Z,15.40
2023-05-12T19:17:13.851Z,15.30
2023-05-12T19:22:15.781Z,15.10
2023-05-12T19:27:17.543Z,15.10
2023-05-12T19:32:19.271Z,14.90
2023-05-12T19:37:21.148Z,14.90
2023-05-12T19:42:22.893Z,14.80
2023-05-12T19:47:26.692Z,14.70
2023-05-12T19:52:30.733Z,14.70
2023-05-12T19:57:32.756Z,14.60
2023-05-12T20:02:34.529Z,14.50
2023-05-12T20:07:36.377Z,14.40
2023-05-12T20:12:38.084Z,14.30
2023-05-12T20:17:39.840Z,14.20
2023-05-12T20:22:41.637Z,14.20
2023-05-12T20:27:44.024Z,14.10
2023-05-12T20:32:46.113Z,14.00
2023-05-12T20:37:48.521Z,13.90
2023-05-12T20:42:50.233Z,13.70
2023-05-12T20:47:52.265Z,13.70
2023-05-12T20:52:53.997Z,13.50
2023-05-12T20:57:55.780Z,13.40
2023-05-12T21:02:58.153Z,13.30
2023-05-12T21:08:00.157Z,13.30
2023-05-12T21:13:01.932Z,13.10
2023-05-12T21:18:03.794Z,13.10
2023-05-12T21:23:05.936Z,13.00
2023-05-12T21:28:07.653Z,12.90
2023-05-12T21:33:09.669Z,12.70
2023-05-12T21:38:11.571Z,12.60
2023-05-12T21:43:13.291Z,12.50
2023-05-12T21:48:15.308Z,12.40
2023-05-12T21:53:17.349Z,12.20
2023-05-12T21:58:19.291Z,12.10
2023-05-12T22:03:22.080Z,12.10
2023-05-12T22:08:23.942Z,11.90
2023-05-12T22:13:25.873Z,11.90
2023-05-12T22:18:27.675Z,11.80
2023-05-12T22:23:29.447Z,11.60
2023-05-12T22:28:31.410Z,11.50
2023-05-12T22:33:33.860Z,11.50
2023-05-12T22:38:35.663Z,11.40
2023-05-12T22:43:37.369Z,11.30
2023-05-12T22:48:39.697Z,11.30
2023-05-12T22:53:41.856Z,11.20
2023-05-12T22:58:43.595Z,11.10
2023-05-12T23:03:45.320Z,11.00
2023-05-12T23:08:47.091Z,11.00
2023-05-12T23:13:48.799Z,11.00
2023-05-12T23:18:50.778Z,10.80
2023-05-12T23:23:52.520Z,10.70
2023-05-12T23:28:54.222Z,10.70
2023-05-12T23:33:56.195Z,10.60
2023-05-12T23:38:57.952Z,10.50
2023-05-12T23:43:59.632Z,10.50
2023-05-12T23:49:01.428Z,10.50
2023-05-12T23:54:03.169Z,10.30
2023-05-12T23:59:04.965Z,10.30
